Time;durP1;ratioP1;P1;durP2;ratioP2;P2;SDS_P1;SDS_P2;PMS_P1;PMS_P2;Temp;Humidity;BMP_temperature;BMP_pressure;BME280_temperature;BME280_humidity;BME280_pressure;Samples;Min_cycle;Max_cycle;Signal;HPM_P1;HPM_P2
2022/01/03 00:01:28;;;;;;;;;1.75;1.75;;;;;-142.59;100.00;56100.38;4897148;29;49726;-60
2022/01/03 00:03:55;;;;;;;;;4.25;4.00;;;;;-142.59;100.00;56100.38;4896616;28;52960;-61
2022/01/03 00:06:21;;;;;;;;;5.75;3.50;;;;;-142.59;100.00;56100.38;4896837;28;49778;-60
2022/01/03 00:08:46;;;;;;;;;3.00;2.00;;;;;-142.59;100.00;56100.38;4897147;28;49471;-60
2022/01/03 00:11:20;;;;;;;;;4.25;4.00;;;;;-142.59;100.00;56100.38;4896982;28;50132;-60
2022/01/03 00:13:48;;;;;;;;;5.25;2.25;;;;;-142.59;100.00;56100.38;4896870;29;50908;-61
2022/01/03 00:16:13;;;;;;;;;3.75;3.00;;;;;-142.59;100.00;56100.38;4896815;28;49870;-60
2022/01/03 00:18:39;;;;;;;;;10.25;4.25;;;;;-142.59;100.00;56100.38;4897010;28;49665;-60
2022/01/03 00:21:12;;;;;;;;;4.00;2.25;;;;;-142.59;100.00;56100.38;4896953;28;49920;-60
2022/01/03 00:23:40;;;;;;;;;3.75;2.00;;;;;-142.59;100.00;56100.38;4896097;28;50767;-60
2022/01/03 00:26:08;;;;;;;;;3.50;2.00;;;;;-142.59;100.00;56100.38;4896702;28;49896;-60
2022/01/03 00:28:47;;;;;;;;;6.00;2.75;;;;;-142.59;100.00;56100.38;4896607;29;49695;-61
2022/01/03 00:31:16;;;;;;;;;5.00;2.50;;;;;-142.59;100.00;56100.38;4896923;28;49908;-60
2022/01/03 00:33:41;;;;;;;;;3.75;3.75;;;;;-142.59;100.00;56100.38;4895268;29;50726;-60
2022/01/03 00:36:07;;;;;;;;;5.75;3.00;;;;;-142.59;100.00;56100.38;4896473;28;49770;-60
2022/01/03 00:38:34;;;;;;;;;3.25;1.00;;;;;-142.59;100.00;56100.38;4896789;28;49712;-60
2022/01/03 00:41:01;;;;;;;;;4.25;2.00;;;;;-142.59;100.00;56100.38;4896643;29;49636;-60
2022/01/03 00:43:28;;;;;;;;;5.00;4.75;;;;;-142.59;100.00;56100.38;4896335;28;49803;-60
2022/01/03 00:45:56;;;;;;;;;9.25;3.75;;;;;-142.59;100.00;56100.38;4896349;28;49862;-60
2022/01/03 00:48:22;;;;;;;;;4.75;1.50;;;;;-142.59;100.00;56100.38;4896557;28;49758;-60
2022/01/03 00:50:48;;;;;;;;;2.75;2.75;;;;;-142.59;100.00;56100.38;4896485;29;49880;-60
2022/01/03 00:53:13;;;;;;;;;9.50;4.00;;;;;-142.59;100.00;56100.38;4896018;29;49722;-60
2022/01/03 00:55:59;;;;;;;;;1.75;1.75;;;;;-142.59;100.00;56100.38;4896599;28;50015;-60
2022/01/03 00:58:30;;;;;;;;;5.50;2.75;;;;;-142.59;100.00;56100.38;4896194;28;49834;-60
2022/01/03 01:00:57;;;;;;;;;4.25;1.50;;;;;-142.59;100.00;56100.38;4896634;28;49952;-60
2022/01/03 01:03:32;;;;;;;;;4.25;2.00;;;;;-142.59;100.00;56100.38;4895168;28;49908;-60
2022/01/03 01:06:01;;;;;;;;;5.25;2.50;;;;;-142.59;100.00;56100.38;4896155;28;49688;-60
2022/01/03 01:08:28;;;;;;;;;5.75;3.75;;;;;-142.59;100.00;56100.38;4896323;29;50208;-60
2022/01/03 01:10:58;;;;;;;;;5.25;2.00;;;;;-142.59;100.00;56100.38;4896064;29;49863;-60
2022/01/03 01:13:23;;;;;;;;;4.75;4.00;;;;;-142.59;100.00;56100.38;4895910;29;50746;-60
2022/01/03 01:15:49;;;;;;;;;4.00;3.00;;;;;-142.59;100.00;56100.38;4896136;28;49674;-61
2022/01/03 01:18:14;;;;;;;;;9.00;2.25;;;;;-142.59;100.00;56100.38;4896239;28;49768;-60
2022/01/03 01:20:40;;;;;;;;;4.50;3.25;;;;;-142.59;100.00;56100.38;4896182;28;50106;-61
2022/01/03 01:23:06;;;;;;;;;4.50;3.50;;;;;-142.59;100.00;56100.38;4895867;28;50765;-61
2022/01/03 01:28:02;;;;;;;;;5.75;4.75;;;;;-142.59;100.00;56100.38;4895708;28;49950;-60
2022/01/03 01:30:28;;;;;;;;;2.50;1.25;;;;;-142.59;100.00;56100.38;4894532;29;49708;-60
2022/01/03 01:33:02;;;;;;;;;2.00;2.00;;;;;-142.59;100.00;56100.38;4895677;28;51008;-60
2022/01/03 01:35:57;;;;;;;;;3.00;3.00;;;;;-142.59;100.00;56100.38;4895834;28;50225;-60
2022/01/03 01:38:28;;;;;;;;;6.50;4.75;;;;;-142.59;100.00;56100.38;4888687;29;49827;-60
2022/01/03 01:40:56;;;;;;;;;3.50;2.75;;;;;-142.59;100.00;56100.38;4895422;28;49759;-60
2022/01/03 01:43:30;;;;;;;;;4.50;2.00;;;;;-142.59;100.00;56100.38;4895428;29;50472;-60
2022/01/03 01:45:58;;;;;;;;;1.75;1.75;;;;;-142.59;100.00;56100.38;4895535;28;49997;-60
2022/01/03 01:48:24;;;;;;;;;4.00;1.75;;;;;-142.59;100.00;56100.38;4895821;28;50015;-60
2022/01/03 01:50:52;;;;;;;;;4.50;3.25;;;;;-142.59;100.00;56100.38;4895806;28;50086;-60
2022/01/03 01:53:22;;;;;;;;;3.25;2.00;;;;;-142.59;100.00;56100.38;4895312;28;50636;-61
2022/01/03 01:55:49;;;;;;;;;5.50;2.25;;;;;-142.59;100.00;56100.38;4895270;28;49730;-60
2022/01/03 01:58:24;;;;;;;;;3.75;2.50;;;;;-142.59;100.00;56100.38;4893785;29;50297;-60
2022/01/03 02:00:57;;;;;;;;;4.00;1.75;;;;;-142.59;100.00;56100.38;4895489;28;49823;-60
2022/01/03 02:03:36;;;;;;;;;7.25;4.00;;;;;-142.59;100.00;56100.38;4895024;28;49998;-60
2022/01/03 02:06:07;;;;;;;;;7.75;2.75;;;;;-142.59;100.00;56100.38;4895331;28;49717;-60
2022/01/03 02:08:39;;;;;;;;;3.75;1.75;;;;;-142.59;100.00;56100.38;4895476;29;49966;-60
2022/01/03 02:11:16;;;;;;;;;2.50;1.00;;;;;-142.59;100.00;56100.38;4895428;28;49897;-60
2022/01/03 02:13:44;;;;;;;;;4.25;2.50;;;;;-142.59;100.00;56100.38;4893685;29;50847;-60
2022/01/03 02:16:11;;;;;;;;;4.50;3.25;;;;;-142.59;100.00;56100.38;4895032;28;49709;-60
2022/01/03 02:18:36;;;;;;;;;4.75;3.00;;;;;-142.59;100.00;56100.38;4895130;28;49847;-61
2022/01/03 02:21:03;;;;;;;;;3.50;3.50;;;;;-142.59;100.00;56100.38;4895157;28;49632;-60
2022/01/03 02:23:28;;;;;;;;;3.50;2.00;;;;;-142.59;100.00;56100.38;4895215;28;49607;-60
2022/01/03 02:25:54;;;;;;;;;5.00;3.00;;;;;-142.59;100.00;56100.38;4894751;28;49799;-60
2022/01/03 02:28:22;;;;;;;;;1.50;1.50;;;;;-142.59;100.00;56100.38;4895164;28;49881;-61
2022/01/03 02:30:49;;;;;;;;;3.00;2.00;;;;;-142.59;100.00;56100.38;4895416;28;50229;-61
2022/01/03 02:33:15;;;;;;;;;1.25;1.00;;;;;-142.59;100.00;56100.38;4894908;28;49948;-60
2022/01/03 02:35:42;;;;;;;;;3.50;2.00;;;;;-142.59;100.00;56100.38;4894975;28;50075;-60
2022/01/03 02:38:08;;;;;;;;;2.00;2.00;;;;;-142.59;100.00;56100.38;4894871;28;50026;-60
2022/01/03 02:40:34;;;;;;;;;3.00;1.50;;;;;-142.59;100.00;56100.38;4894885;28;49923;-61
2022/01/03 02:42:59;;;;;;;;;4.50;4.00;;;;;-142.59;100.00;56100.38;4894720;28;49792;-60
2022/01/03 02:45:25;;;;;;;;;4.25;2.50;;;;;-142.59;100.00;56100.38;4894783;28;49722;-60
2022/01/03 02:47:54;;;;;;;;;3.50;3.50;;;;;-142.59;100.00;56100.38;4895119;28;49703;-61
2022/01/03 02:50:21;;;;;;;;;2.25;1.25;;;;;-142.59;100.00;56100.38;4894825;28;49828;-60
2022/01/03 02:52:47;;;;;;;;;3.75;2.50;;;;;-142.59;100.00;56100.38;4894567;28;50450;-60
2022/01/03 02:55:13;;;;;;;;;3.50;1.50;;;;;-142.59;100.00;56100.38;4894554;28;49838;-60
2022/01/03 02:57:42;;;;;;;;;6.00;3.00;;;;;-142.59;100.00;56100.38;4894268;28;49648;-60
2022/01/03 03:00:14;;;;;;;;;2.00;1.00;;;;;-142.59;100.00;56100.38;4893209;28;50075;-61
2022/01/03 03:02:39;;;;;;;;;4.75;0.75;;;;;-142.59;100.00;56100.38;4888293;29;49925;-60
2022/01/03 03:05:07;;;;;;;;;4.00;2.75;;;;;-142.59;100.00;56100.38;4894407;29;49813;-60
2022/01/03 03:07:34;;;;;;;;;4.50;2.00;;;;;-142.59;100.00;56100.38;4894494;28;49725;-60
2022/01/03 03:10:00;;;;;;;;;2.50;2.00;;;;;-142.59;100.00;56100.38;4894576;28;50070;-60
2022/01/03 03:12:27;;;;;;;;;3.00;1.50;;;;;-142.59;100.00;56100.38;4893882;28;50936;-60
2022/01/03 03:14:52;;;;;;;;;3.25;2.25;;;;;-142.59;100.00;56100.38;4894236;28;49842;-60
2022/01/03 03:17:19;;;;;;;;;3.50;2.00;;;;;-142.59;100.00;56100.38;4894188;28;49794;-60
2022/01/03 03:19:50;;;;;;;;;3.50;2.00;;;;;-142.59;100.00;56100.38;4893174;29;49871;-60
2022/01/03 03:22:15;;;;;;;;;4.00;2.75;;;;;-142.59;100.00;56100.38;4893973;28;49923;-60
2022/01/03 03:24:41;;;;;;;;;3.00;2.00;;;;;-142.59;100.00;56100.38;4894252;29;49979;-60
2022/01/03 03:27:10;;;;;;;;;5.25;3.00;;;;;-142.59;100.00;56100.38;4893632;28;49779;-61
2022/01/03 03:29:42;;;;;;;;;2.00;2.00;;;;;-142.59;100.00;56100.38;4894384;28;49850;-60
2022/01/03 03:32:08;;;;;;;;;6.25;3.25;;;;;-142.59;100.00;56100.38;4893883;28;49634;-60
2022/01/03 03:34:33;;;;;;;;;5.25;2.75;;;;;-142.59;100.00;56100.38;4894080;29;49849;-60
2022/01/03 03:36:58;;;;;;;;;1.25;1.25;;;;;-142.59;100.00;56100.38;4894254;29;49845;-60
2022/01/03 03:39:24;;;;;;;;;9.75;2.00;;;;;-142.59;100.00;56100.38;4894545;28;49997;-60
2022/01/03 03:41:49;;;;;;;;;3.50;1.25;;;;;-142.59;100.00;56100.38;4893784;28;50083;-59
2022/01/03 03:44:14;;;;;;;;;5.00;3.50;;;;;-142.59;100.00;56100.38;4894150;28;49657;-60
2022/01/03 03:46:40;;;;;;;;;3.75;2.00;;;;;-142.59;100.00;56100.38;4893824;28;49924;-60
2022/01/03 03:49:06;;;;;;;;;4.25;2.00;;;;;-142.59;100.00;56100.38;4894198;28;49904;-59
2022/01/03 03:51:38;;;;;;;;;9.25;5.00;;;;;-142.59;100.00;56100.38;4893813;28;49972;-59
2022/01/03 03:54:03;;;;;;;;;3.75;2.50;;;;;-142.59;100.00;56100.38;4893915;29;49776;-59
2022/01/03 03:56:28;;;;;;;;;6.25;5.00;;;;;-142.59;100.00;56100.38;4893627;28;49818;-59
2022/01/03 03:58:54;;;;;;;;;1.75;1.75;;;;;-142.59;100.00;56100.38;4893940;28;50019;-59
2022/01/03 04:01:19;;;;;;;;;5.50;3.00;;;;;-142.59;100.00;56100.38;4893874;29;50663;-59
2022/01/03 04:03:44;;;;;;;;;5.00;3.50;;;;;-142.59;100.00;56100.38;4893721;28;49824;-59
2022/01/03 04:06:10;;;;;;;;;4.75;2.25;;;;;-142.59;100.00;56100.38;4893932;28;50078;-61
2022/01/03 04:08:35;;;;;;;;;7.00;3.00;;;;;-142.59;100.00;56100.38;4894056;28;49700;-61
2022/01/03 04:11:00;;;;;;;;;7.00;2.50;;;;;-142.59;100.00;56100.38;4893418;28;51683;-59
2022/01/03 04:13:26;;;;;;;;;2.25;2.25;;;;;-142.59;100.00;56100.38;4893571;29;49732;-60
2022/01/03 04:15:51;;;;;;;;;3.75;3.00;;;;;-142.59;100.00;56100.38;4893731;28;49846;-59
2022/01/03 04:18:16;;;;;;;;;3.00;1.75;;;;;-142.59;100.00;56100.38;4893959;28;49665;-60
2022/01/03 04:20:42;;;;;;;;;3.50;2.75;;;;;-142.59;100.00;56100.38;4893460;28;49867;-60
2022/01/03 04:23:07;;;;;;;;;1.25;1.25;;;;;-142.59;100.00;56100.38;4893476;29;49758;-60
2022/01/03 04:25:32;;;;;;;;;2.50;2.50;;;;;-142.59;100.00;56100.38;4893342;29;49818;-60
2022/01/03 04:27:58;;;;;;;;;2.00;1.50;;;;;-142.59;100.00;56100.38;4893850;28;50163;-60
2022/01/03 04:30:23;;;;;;;;;6.00;3.00;;;;;-142.59;100.00;56100.38;4891997;29;50724;-60
2022/01/03 04:32:49;;;;;;;;;3.50;3.50;;;;;-142.59;100.00;56100.38;4893626;28;49522;-59
2022/01/03 04:35:14;;;;;;;;;2.25;2.00;;;;;-142.59;100.00;56100.38;4893454;28;49788;-60
2022/01/03 04:37:39;;;;;;;;;2.00;2.00;;;;;-142.59;100.00;56100.38;4894264;28;49795;-60
2022/01/03 04:40:05;;;;;;;;;2.75;2.25;;;;;-142.59;100.00;56100.38;4896566;28;49689;-61
2022/01/03 04:42:31;;;;;;;;;9.25;3.75;;;;;-142.59;100.00;56100.38;4896450;28;49989;-60
2022/01/03 04:44:56;;;;;;;;;3.00;1.50;;;;;-142.59;100.00;56100.38;4896642;28;49790;-60
2022/01/03 04:47:22;;;;;;;;;3.25;3.00;;;;;-142.59;100.00;56100.38;4896816;28;49693;-60
2022/01/03 04:49:47;;;;;;;;;5.00;3.00;;;;;-142.59;100.00;56100.38;4896311;28;50807;-60
2022/01/03 04:52:14;;;;;;;;;2.75;2.00;;;;;-142.59;100.00;56100.38;4896759;28;50135;-60
2022/01/03 04:54:39;;;;;;;;;2.75;2.00;;;;;-142.59;100.00;56100.38;4896545;28;50008;-60
2022/01/03 04:57:04;;;;;;;;;5.25;2.50;;;;;-142.59;100.00;56100.38;4896296;28;49787;-60
2022/01/03 04:59:30;;;;;;;;;2.25;2.25;;;;;-142.59;100.00;56100.38;4896068;28;51209;-60
2022/01/03 05:01:55;;;;;;;;;2.25;1.75;;;;;-142.59;100.00;56100.38;4896419;28;49690;-60
2022/01/03 05:04:20;;;;;;;;;3.00;1.75;;;;;-142.59;100.00;56100.38;4896238;29;49796;-60
2022/01/03 05:06:46;;;;;;;;;7.00;3.25;;;;;-142.59;100.00;56100.38;4890221;29;49701;-61
2022/01/03 05:09:11;;;;;;;;;2.50;2.50;;;;;-142.59;100.00;56100.38;4894876;29;52414;-60
2022/01/03 05:11:36;;;;;;;;;8.25;2.00;;;;;-142.59;100.00;56100.38;4895987;28;49696;-63
2022/01/03 05:14:02;;;;;;;;;3.00;2.00;;;;;-142.59;100.00;56100.38;4896324;28;49938;-61
2022/01/03 05:16:27;;;;;;;;;5.25;2.00;;;;;-142.59;100.00;56100.38;4896328;28;49946;-63
2022/01/03 05:18:52;;;;;;;;;6.00;1.50;;;;;-142.59;100.00;56100.38;4895936;28;49699;-61
2022/01/03 05:21:19;;;;;;;;;2.75;2.00;;;;;-142.59;100.00;56100.38;4896090;28;49933;-61
2022/01/03 05:23:45;;;;;;;;;7.00;3.75;;;;;-142.59;100.00;56100.38;4895796;28;49960;-60
2022/01/03 05:26:10;;;;;;;;;8.00;2.50;;;;;-142.59;100.00;56100.38;4895976;28;49755;-60
2022/01/03 05:28:36;;;;;;;;;5.00;2.75;;;;;-142.59;100.00;56100.38;4895994;28;49999;-60
2022/01/03 05:31:01;;;;;;;;;4.50;1.75;;;;;-142.59;100.00;56100.38;4896144;28;49740;-61
2022/01/03 05:33:26;;;;;;;;;2.75;2.00;;;;;-142.59;100.00;56100.38;4895932;28;50237;-61
2022/01/03 05:35:52;;;;;;;;;6.50;4.50;;;;;-142.59;100.00;56100.38;4896296;29;49847;-61
2022/01/03 05:38:17;;;;;;;;;4.50;1.75;;;;;-142.59;100.00;56100.38;4895499;28;49664;-61
2022/01/03 05:40:43;;;;;;;;;3.00;2.00;;;;;-142.59;100.00;56100.38;4895509;28;49637;-60
2022/01/03 05:43:10;;;;;;;;;4.00;1.75;;;;;-142.59;100.00;56100.38;4895871;28;49621;-63
2022/01/03 05:45:36;;;;;;;;;3.00;2.00;;;;;-142.59;100.00;56100.38;4896033;28;49804;-66
2022/01/03 05:48:01;;;;;;;;;8.50;5.00;;;;;-142.59;100.00;56100.38;4894738;28;50343;-63
2022/01/03 05:50:27;;;;;;;;;3.00;2.00;;;;;-142.59;100.00;56100.38;4895594;29;49892;-68
2022/01/03 05:52:52;;;;;;;;;2.00;2.00;;;;;-142.59;100.00;56100.38;4898340;28;49744;-63
2022/01/03 05:55:20;;;;;;;;;3.00;3.00;;;;;-142.59;100.00;56100.38;4895781;28;49886;-61
2022/01/03 05:57:46;;;;;;;;;2.50;1.00;;;;;-142.59;100.00;56100.38;4893387;29;49764;-60
2022/01/03 06:00:14;;;;;;;;;3.25;3.00;;;;;-142.59;100.00;56100.38;4895465;29;49764;-60
2022/01/03 06:02:42;;;;;;;;;6.75;4.25;;;;;-142.59;100.00;56100.38;4895761;28;49986;-61
2022/01/03 06:05:16;;;;;;;;;6.00;2.00;;;;;-142.59;100.00;56100.38;4895538;28;50070;-61
2022/01/03 06:07:42;;;;;;;;;4.25;2.75;;;;;-142.59;100.00;56100.38;4895395;28;50809;-60
2022/01/03 06:10:13;;;;;;;;;5.50;2.50;;;;;-142.59;100.00;56100.38;4895109;28;49980;-63
2022/01/03 06:12:38;;;;;;;;;5.50;2.50;;;;;-142.59;100.00;56100.38;4893870;29;49725;-62
2022/01/03 06:15:05;;;;;;;;;4.00;2.25;;;;;-142.59;100.00;56100.38;4895081;29;49938;-61
2022/01/03 06:17:30;;;;;;;;;4.25;2.00;;;;;-142.59;100.00;56100.38;4897793;28;49814;-71
2022/01/03 06:19:56;;;;;;;;;4.50;1.00;;;;;-142.59;100.00;56100.38;4893850;29;49799;-67
2022/01/03 06:22:21;;;;;;;;;2.25;1.00;;;;;-142.59;100.00;56100.38;4895103;29;49800;-68
2022/01/03 06:24:47;;;;;;;;;3.00;0.00;;;;;-142.59;100.00;56100.38;4895436;28;49604;-71
2022/01/03 06:27:13;;;;;;;;;2.00;2.00;;;;;-142.59;100.00;56100.38;4895005;28;50870;-69
2022/01/03 06:29:38;;;;;;;;;3.00;3.00;;;;;-142.59;100.00;56100.38;4899002;28;49623;-71
2022/01/03 06:32:04;;;;;;;;;3.50;2.00;;;;;-142.59;100.00;56100.38;4902218;28;49607;-69
2022/01/03 06:34:29;;;;;;;;;3.00;3.00;;;;;-142.59;100.00;56100.38;4909674;28;49373;-69
2022/01/03 06:36:55;;;;;;;;;0.00;0.00;;;;;-142.59;100.00;56100.38;4910760;28;50636;-66
2022/01/03 06:39:20;;;;;;;;;2.25;1.25;;;;;-142.59;100.00;56100.38;4910548;28;49352;-63
2022/01/03 06:41:45;;;;;;;;;9.50;2.25;;;;;-142.59;100.00;56100.38;4909814;28;49489;-63
2022/01/03 06:44:12;;;;;;;;;4.50;3.00;;;;;-142.59;100.00;56100.38;4910826;28;49552;-66
2022/01/03 06:46:37;;;;;;;;;4.75;3.50;;;;;-142.59;100.00;56100.38;4909635;28;49771;-63
2022/01/03 06:49:05;;;;;;;;;3.75;2.00;;;;;-142.59;100.00;56100.38;4907565;28;49667;-61
2022/01/03 06:51:34;;;;;;;;;4.50;2.25;;;;;-142.59;100.00;56100.38;4905714;28;49562;-60
2022/01/03 06:54:04;;;;;;;;;4.00;3.25;;;;;-142.59;100.00;56100.38;4898496;29;49581;-62
2022/01/03 06:56:29;;;;;;;;;6.00;3.25;;;;;-142.59;100.00;56100.38;4910493;28;49492;-65
2022/01/03 06:58:54;;;;;;;;;3.50;1.75;;;;;-142.59;100.00;56100.38;4905460;28;49836;-60
2022/01/03 07:01:20;;;;;;;;;4.00;2.75;;;;;-142.59;100.00;56100.38;4909053;28;50317;-71
2022/01/03 07:03:45;;;;;;;;;2.00;1.75;;;;;-142.59;100.00;56100.38;4911555;28;49551;-62
2022/01/03 07:06:10;;;;;;;;;5.75;4.00;;;;;-142.59;100.00;56100.38;4911610;28;49516;-63
2022/01/03 07:08:36;;;;;;;;;9.00;2.50;;;;;-142.59;100.00;56100.38;4911205;28;49623;-64
2022/01/03 07:11:01;;;;;;;;;3.75;3.00;;;;;-142.59;100.00;56100.38;4910526;28;49213;-70
2022/01/03 07:13:29;;;;;;;;;3.00;3.00;;;;;-142.59;100.00;56100.38;4909993;28;49645;-63
2022/01/03 07:18:57;;;;;;;;;9.00;2.00;;;;;-142.59;100.00;56100.38;4908747;29;49198;-66
2022/01/03 07:21:31;;;;;;;;;11.00;4.75;;;;;-142.59;100.00;56100.38;4894315;28;49665;-61
2022/01/03 07:23:57;;;;;;;;;5.00;2.25;;;;;-142.59;100.00;56100.38;4893584;28;50290;-64
2022/01/03 07:26:27;;;;;;;;;6.50;3.25;;;;;-142.59;100.00;56100.38;4893952;28;50662;-61
2022/01/03 07:28:53;;;;;;;;;4.25;2.25;;;;;-142.59;100.00;56100.38;4889894;28;49799;-64
2022/01/03 07:31:19;;;;;;;;;4.25;2.00;;;;;-142.59;100.00;56100.38;4891934;28;49933;-72
2022/01/03 07:33:47;;;;;;;;;5.00;3.25;;;;;-142.59;100.00;56100.38;4897670;28;49780;-70
2022/01/03 07:36:13;;;;;;;;;4.50;2.00;;;;;-142.59;100.00;56100.38;4894485;28;50496;-66
2022/01/03 07:38:39;;;;;;;;;7.25;4.50;;;;;-142.59;100.00;56100.38;4893717;28;49660;-61
2022/01/03 07:41:05;;;;;;;;;3.50;2.00;;;;;-142.59;100.00;56100.38;4897248;28;49779;-61
2022/01/03 07:43:31;;;;;;;;;2.50;2.50;;;;;-142.59;100.00;56100.38;4896477;28;49793;-62
2022/01/03 07:45:56;;;;;;;;;3.00;2.25;;;;;-142.59;100.00;56100.38;4897367;28;50384;-64
2022/01/03 07:48:22;;;;;;;;;3.75;2.25;;;;;-142.59;100.00;56100.38;4894709;28;50976;-61
2022/01/03 07:50:47;;;;;;;;;6.50;2.75;;;;;-142.59;100.00;56100.38;4898109;28;49952;-64
2022/01/03 07:53:12;;;;;;;;;4.25;1.25;;;;;-142.59;100.00;56100.38;4893366;28;49872;-63
2022/01/03 07:55:38;;;;;;;;;7.00;4.25;;;;;-142.59;100.00;56100.38;4896461;28;50467;-61
2022/01/03 07:58:03;;;;;;;;;6.75;4.00;;;;;-142.59;100.00;56100.38;4892674;28;49827;-62
2022/01/03 08:00:29;;;;;;;;;5.25;4.00;;;;;-142.59;100.00;56100.38;4888163;28;49949;-63
2022/01/03 08:02:54;;;;;;;;;3.75;2.25;;;;;-142.59;100.00;56100.38;4894023;28;49793;-61
2022/01/03 08:05:20;;;;;;;;;5.50;3.00;;;;;-142.59;100.00;56100.38;4893573;28;49868;-61
2022/01/03 08:07:45;;;;;;;;;2.75;1.50;;;;;-142.59;100.00;56100.38;4893856;28;49866;-61
2022/01/03 08:10:13;;;;;;;;;4.75;4.75;;;;;-142.59;100.00;56100.38;4893625;28;49624;-61
2022/01/03 08:12:39;;;;;;;;;6.75;4.75;;;;;-142.59;100.00;56100.38;4896075;28;49963;-61
2022/01/03 08:15:06;;;;;;;;;4.25;2.25;;;;;-142.59;100.00;56100.38;4896966;28;50577;-61
2022/01/03 08:17:32;;;;;;;;;5.25;3.50;;;;;-142.59;100.00;56100.38;4896802;29;49774;-61
2022/01/03 08:19:57;;;;;;;;;2.50;2.50;;;;;-142.59;100.00;56100.38;4890772;29;49802;-61
2022/01/03 08:22:23;;;;;;;;;4.00;3.50;;;;;-142.59;100.00;56100.38;4897002;28;49624;-61
2022/01/03 08:24:48;;;;;;;;;3.25;3.25;;;;;-142.59;100.00;56100.38;4896774;28;49856;-64
2022/01/03 08:27:13;;;;;;;;;3.75;2.50;;;;;-142.59;100.00;56100.38;4896416;28;49813;-62
2022/01/03 08:29:39;;;;;;;;;4.00;2.00;;;;;-142.59;100.00;56100.38;4896636;29;50396;-63
2022/01/03 08:32:05;;;;;;;;;7.00;3.50;;;;;-142.59;100.00;56100.38;4897079;29;49733;-62
2022/01/03 08:34:30;;;;;;;;;7.50;3.50;;;;;-142.59;100.00;56100.38;4896785;28;50928;-61
2022/01/03 08:36:56;;;;;;;;;4.75;3.00;;;;;-142.59;100.00;56100.38;4896581;28;49700;-61
2022/01/03 08:39:21;;;;;;;;;3.50;3.50;;;;;-142.59;100.00;56100.38;4896759;29;49806;-66
2022/01/03 08:41:46;;;;;;;;;6.50;4.00;;;;;-142.59;100.00;56100.38;4896593;28;49886;-66
2022/01/03 08:44:12;;;;;;;;;2.50;2.00;;;;;-142.59;100.00;56100.38;4896495;28;50855;-65
2022/01/03 08:46:37;;;;;;;;;2.75;2.75;;;;;-142.59;100.00;56100.38;4896624;28;49867;-65
2022/01/03 08:49:03;;;;;;;;;3.00;2.00;;;;;-142.59;100.00;56100.38;4896824;29;49756;-64
2022/01/03 08:51:29;;;;;;;;;3.00;2.50;;;;;-142.59;100.00;56100.38;4896801;29;49875;-63
2022/01/03 08:53:54;;;;;;;;;5.00;1.50;;;;;-142.59;100.00;56100.38;4896425;29;49816;-66
2022/01/03 08:56:20;;;;;;;;;4.75;4.25;;;;;-142.59;100.00;56100.38;4896001;28;49927;-63
2022/01/03 08:58:45;;;;;;;;;4.75;4.00;;;;;-142.59;100.00;56100.38;4896233;29;50010;-62
2022/01/03 09:01:11;;;;;;;;;5.25;3.25;;;;;-142.59;100.00;56100.38;4896520;28;49761;-66
2022/01/03 09:03:36;;;;;;;;;6.75;3.25;;;;;-142.59;100.00;56100.38;4896284;28;50362;-67
2022/01/03 09:06:02;;;;;;;;;2.25;1.75;;;;;-142.59;100.00;56100.38;4896529;28;50157;-65
2022/01/03 09:08:27;;;;;;;;;5.00;2.00;;;;;-142.59;100.00;56100.38;4896344;28;49704;-67
2022/01/03 09:10:53;;;;;;;;;9.00;2.00;;;;;-142.59;100.00;56100.38;4896263;28;49978;-64
2022/01/03 09:13:20;;;;;;;;;2.75;2.75;;;;;-142.59;100.00;56100.38;4895832;28;50844;-65
2022/01/03 09:15:46;;;;;;;;;5.00;3.00;;;;;-142.59;100.00;56100.38;4895910;28;49995;-62
2022/01/03 09:18:16;;;;;;;;;5.25;3.25;;;;;-142.59;100.00;56100.38;4896039;29;49968;-66
2022/01/03 09:20:42;;;;;;;;;5.50;3.00;;;;;-142.59;100.00;56100.38;4894788;29;49994;-67
2022/01/03 09:23:20;;;;;;;;;2.00;2.00;;;;;-142.59;100.00;56100.38;4894962;28;49736;-63
2022/01/03 09:31:14;;;;;;;;;2.75;1.75;;;;;-142.59;100.00;56100.38;4896092;29;49682;-64
2022/01/03 09:33:39;;;;;;;;;3.50;2.50;;;;;-142.59;100.00;56100.38;4895628;28;50053;-64
2022/01/03 09:36:05;;;;;;;;;7.75;3.75;;;;;-142.59;100.00;56100.38;4895769;28;49920;-66
2022/01/03 09:38:30;;;;;;;;;4.50;2.75;;;;;-142.59;100.00;56100.38;4895968;28;49640;-68
2022/01/03 09:41:01;;;;;;;;;4.75;2.50;;;;;-142.59;100.00;56100.38;4896030;28;49843;-64
2022/01/03 09:43:27;;;;;;;;;6.25;4.75;;;;;-142.59;100.00;56100.38;4895679;28;49860;-70
2022/01/03 09:45:54;;;;;;;;;9.00;3.50;;;;;-142.59;100.00;56100.38;4895744;28;49674;-62
2022/01/03 09:48:22;;;;;;;;;4.50;3.50;;;;;-142.59;100.00;56100.38;4895585;29;50051;-67
2022/01/03 09:50:49;;;;;;;;;4.25;3.25;;;;;-142.59;100.00;56100.38;4895514;28;50171;-68
2022/01/03 09:53:18;;;;;;;;;4.25;2.00;;;;;-142.59;100.00;56100.38;4895388;28;49764;-67
2022/01/03 09:55:44;;;;;;;;;8.00;3.50;;;;;-142.59;100.00;56100.38;4895317;29;49691;-65
2022/01/03 09:58:14;;;;;;;;;5.00;4.00;;;;;-142.59;100.00;56100.38;4895405;29;50015;-66
2022/01/03 10:00:40;;;;;;;;;5.00;1.25;;;;;-142.59;100.00;56100.38;4895748;28;49855;-69
2022/01/03 10:03:06;;;;;;;;;3.00;2.75;;;;;-142.59;100.00;56100.38;4895278;28;49947;-69
2022/01/03 10:05:32;;;;;;;;;4.00;3.50;;;;;-142.59;100.00;56100.38;4893901;29;49559;-65
2022/01/03 10:07:58;;;;;;;;;4.00;2.75;;;;;-142.59;100.00;56100.38;4895507;29;49840;-66
2022/01/03 10:10:27;;;;;;;;;5.25;3.25;;;;;-142.59;100.00;56100.38;4893610;29;49992;-68
2022/01/03 10:12:52;;;;;;;;;4.00;3.00;;;;;-142.59;100.00;56100.38;4895228;29;51018;-65
2022/01/03 10:15:18;;;;;;;;;3.00;3.00;;;;;-142.59;100.00;56100.38;4893962;29;49788;-68
2022/01/03 10:17:45;;;;;;;;;4.75;2.75;;;;;-142.59;100.00;56100.38;4895152;28;49963;-66
2022/01/03 10:20:13;;;;;;;;;4.50;2.50;;;;;-142.59;100.00;56100.38;4895525;28;49677;-64
2022/01/03 10:22:44;;;;;;;;;4.00;2.00;;;;;-142.59;100.00;56100.38;4895040;29;50780;-65
2022/01/03 10:25:18;;;;;;;;;1.00;0.25;;;;;-142.59;100.00;56100.38;4894968;28;49914;-65
2022/01/03 10:27:46;;;;;;;;;4.00;0.00;;;;;-142.59;100.00;56100.38;4894996;28;49908;-61
2022/01/03 10:30:12;;;;;;;;;7.50;3.50;;;;;-142.59;100.00;56100.38;4893506;28;49562;-60
2022/01/03 10:32:38;;;;;;;;;6.00;4.00;;;;;-142.59;100.00;56100.38;4894946;28;49700;-63
2022/01/03 10:35:16;;;;;;;;;2.50;1.50;;;;;-142.59;100.00;56100.38;4895239;29;49874;-64
2022/01/03 10:37:42;;;;;;;;;3.50;2.00;;;;;-142.59;100.00;56100.38;4895066;28;49661;-61
2022/01/03 10:40:20;;;;;;;;;3.25;2.00;;;;;-142.59;100.00;56100.38;4894829;28;49784;-64
2022/01/03 10:42:46;;;;;;;;;4.25;2.00;;;;;-142.59;100.00;56100.38;4894515;29;50011;-62
2022/01/03 10:45:14;;;;;;;;;4.00;2.50;;;;;-142.59;100.00;56100.38;4894833;28;49583;-63
2022/01/03 10:47:42;;;;;;;;;1.50;1.25;;;;;-142.59;100.00;56100.38;4894950;28;49784;-66
2022/01/03 10:50:19;;;;;;;;;5.25;4.00;;;;;-142.59;100.00;56100.38;4894767;28;50030;-64
2022/01/03 10:52:46;;;;;;;;;5.00;3.25;;;;;-142.59;100.00;56100.38;4894745;28;50938;-59
2022/01/03 10:55:11;;;;;;;;;10.00;5.00;;;;;-142.59;100.00;56100.38;4894568;28;49941;-60
2022/01/03 10:57:55;;;;;;;;;4.25;3.25;;;;;-142.59;100.00;56100.38;4894411;28;50051;-62
2022/01/03 11:00:40;;;;;;;;;4.00;1.50;;;;;-142.59;100.00;56100.38;4895715;29;49835;-59
2022/01/03 11:03:28;;;;;;;;;4.00;3.25;;;;;-142.59;100.00;56100.38;4894014;28;49744;-60
2022/01/03 11:06:01;;;;;;;;;5.25;2.00;;;;;-142.59;100.00;56100.38;4895383;28;49745;-69
2022/01/03 11:11:14;;;;;;;;;2.75;1.25;;;;;-142.59;100.00;56100.38;4894570;29;49671;-66
2022/01/03 11:13:47;;;;;;;;;2.25;2.25;;;;;-142.59;100.00;56100.38;4893128;29;50777;-69
2022/01/03 11:16:12;;;;;;;;;6.00;3.00;;;;;-142.59;100.00;56100.38;4894595;28;49744;-71
2022/01/03 11:18:48;;;;;;;;;2.00;2.00;;;;;-142.59;100.00;56100.38;4893940;28;49868;-69
2022/01/03 11:21:16;;;;;;;;;1.25;1.25;;;;;-142.59;100.00;56100.38;4894265;28;49795;-70
2022/01/03 11:23:43;;;;;;;;;5.25;4.50;;;;;-142.59;100.00;56100.38;4894252;28;50622;-65